sensor_id;sensor_type;location;lat;lon;timestamp;pressure;altitude;pressure_sealevel;temperature;humidity
75013;BME280;63567;49.956;20.130;2023-04-25T00:01:14;95867.91;;;11.65;76.04
75013;BME280;63567;49.956;20.130;2023-04-25T00:03:39;95867.22;;;11.69;74.74
75013;BME280;63567;49.956;20.130;2023-04-25T00:06:05;95858.72;;;11.67;74.66
75013;BME280;63567;49.956;20.130;2023-04-25T00:08:31;95865.19;;;11.71;74.39
75013;BME280;63567;49.956;20.130;2023-04-25T00:10:57;95848.75;;;11.69;74.46
75013;BME280;63567;49.956;20.130;2023-04-25T00:13:23;95855.59;;;11.59;75.85
75013;BME280;63567;49.956;20.130;2023-04-25T00:15:50;95857.44;;;11.58;75.93
75013;BME280;63567;49.956;20.130;2023-04-25T00:18:16;95854.34;;;11.61;75.25
75013;BME280;63567;49.956;20.130;2023-04-25T00:20:43;95851.72;;;11.61;75.04
75013;BME280;63567;49.956;20.130;2023-04-25T00:23:15;95859.63;;;11.61;74.66
75013;BME280;63567;49.956;20.130;2023-04-25T00:25:44;95849.06;;;11.61;74.86
75013;BME280;63567;49.956;20.130;2023-04-25T00:28:10;95860.56;;;11.67;74.44
75013;BME280;63567;49.956;20.130;2023-04-25T00:30:35;95848.63;;;11.64;74.32
75013;BME280;63567;49.956;20.130;2023-04-25T00:33:01;95858.94;;;11.66;74.15
75013;BME280;63567;49.956;20.130;2023-04-25T00:35:26;95847.38;;;11.67;74.32
75013;BME280;63567;49.956;20.130;2023-04-25T00:37:51;95845.28;;;11.57;75.10
75013;BME280;63567;49.956;20.130;2023-04-25T00:40:17;95854.31;;;11.49;75.70
75013;BME280;63567;49.956;20.130;2023-04-25T00:42:42;95862.88;;;11.45;75.51
75013;BME280;63567;49.956;20.130;2023-04-25T00:45:12;95862.03;;;11.33;76.26
75013;BME280;63567;49.956;20.130;2023-04-25T00:47:39;95859.81;;;11.29;76.06
75013;BME280;63567;49.956;20.130;2023-04-25T00:50:06;95856.59;;;11.27;76.21
75013;BME280;63567;49.956;20.130;2023-04-25T00:52:32;95856.16;;;11.30;74.82
75013;BME280;63567;49.956;20.130;2023-04-25T00:54:57;95862.31;;;11.24;75.01
75013;BME280;63567;49.956;20.130;2023-04-25T00:57:23;95857.94;;;11.18;75.30
75013;BME280;63567;49.956;20.130;2023-04-25T00:59:51;95860.34;;;11.20;75.29
75013;BME280;63567;49.956;20.130;2023-04-25T01:02:17;95856.50;;;11.04;75.26
75013;BME280;63567;49.956;20.130;2023-04-25T01:04:42;95857.50;;;11.03;75.21
75013;BME280;63567;49.956;20.130;2023-04-25T01:07:09;95854.41;;;11.06;74.76
75013;BME280;63567;49.956;20.130;2023-04-25T01:09:35;95858.28;;;11.03;75.33
75013;BME280;63567;49.956;20.130;2023-04-25T01:12:00;95851.34;;;10.90;75.81
75013;BME280;63567;49.956;20.130;2023-04-25T01:14:27;95871.72;;;11.02;75.06
75013;BME280;63567;49.956;20.130;2023-04-25T01:16:52;95874.56;;;11.00;74.67
75013;BME280;63567;49.956;20.130;2023-04-25T01:19:20;95877.84;;;10.96;75.71
75013;BME280;63567;49.956;20.130;2023-04-25T01:21:46;95873.91;;;10.86;75.83
75013;BME280;63567;49.956;20.130;2023-04-25T01:24:12;95883.84;;;10.84;75.44
75013;BME280;63567;49.956;20.130;2023-04-25T01:26:37;95876.28;;;10.69;77.27
75013;BME280;63567;49.956;20.130;2023-04-25T01:29:05;95876.13;;;10.64;76.79
75013;BME280;63567;49.956;20.130;2023-04-25T01:31:32;95869.06;;;10.65;76.79
75013;BME280;63567;49.956;20.130;2023-04-25T01:33:58;95879.41;;;10.60;78.24
75013;BME280;63567;49.956;20.130;2023-04-25T01:36:24;95875.91;;;10.47;78.70
75013;BME280;63567;49.956;20.130;2023-04-25T01:38:50;95870.19;;;10.51;77.17
75013;BME280;63567;49.956;20.130;2023-04-25T01:41:15;95876.03;;;10.53;77.40
75013;BME280;63567;49.956;20.130;2023-04-25T01:43:43;95880.66;;;10.57;77.14
75013;BME280;63567;49.956;20.130;2023-04-25T01:46:09;95873.63;;;10.51;77.18
75013;BME280;63567;49.956;20.130;2023-04-25T01:48:34;95876.91;;;10.46;77.85
75013;BME280;63567;49.956;20.130;2023-04-25T01:50:59;95876.69;;;10.48;77.28
75013;BME280;63567;49.956;20.130;2023-04-25T01:53:25;95885.19;;;10.50;77.07
75013;BME280;63567;49.956;20.130;2023-04-25T01:55:51;95879.53;;;10.46;77.08
75013;BME280;63567;49.956;20.130;2023-04-25T01:58:16;95878.63;;;10.34;78.55
75013;BME280;63567;49.956;20.130;2023-04-25T02:00:41;95872.59;;;10.27;78.50
75013;BME280;63567;49.956;20.130;2023-04-25T02:03:07;95884.91;;;10.33;77.90
75013;BME280;63567;49.956;20.130;2023-04-25T02:05:37;95883.31;;;10.25;79.02
75013;BME280;63567;49.956;20.130;2023-04-25T02:08:05;95890.00;;;10.28;79.06
75013;BME280;63567;49.956;20.130;2023-04-25T02:10:31;95880.31;;;10.22;78.38
75013;BME280;63567;49.956;20.130;2023-04-25T02:12:57;95889.81;;;10.23;78.42
75013;BME280;63567;49.956;20.130;2023-04-25T02:15:22;95881.91;;;10.23;78.23
75013;BME280;63567;49.956;20.130;2023-04-25T02:17:48;95886.38;;;10.29;77.39
75013;BME280;63567;49.956;20.130;2023-04-25T02:20:14;95888.38;;;10.27;77.58
75013;BME280;63567;49.956;20.130;2023-04-25T02:22:41;95898.91;;;10.27;77.76
75013;BME280;63567;49.956;20.130;2023-04-25T02:25:07;95897.34;;;10.19;78.11
75013;BME280;63567;49.956;20.130;2023-04-25T02:27:34;95898.16;;;10.20;77.93
75013;BME280;63567;49.956;20.130;2023-04-25T02:30:00;95899.16;;;10.19;77.79
75013;BME280;63567;49.956;20.130;2023-04-25T02:32:25;95902.38;;;10.21;77.56
75013;BME280;63567;49.956;20.130;2023-04-25T02:34:50;95895.78;;;10.12;78.49
75013;BME280;63567;49.956;20.130;2023-04-25T02:37:16;95895.34;;;10.15;78.05
75013;BME280;63567;49.956;20.130;2023-04-25T02:39:41;95910.13;;;10.16;78.20
75013;BME280;63567;49.956;20.130;2023-04-25T02:42:06;95884.81;;;10.15;78.09
75013;BME280;63567;49.956;20.130;2023-04-25T02:44:32;95891.41;;;9.99;79.25
75013;BME280;63567;49.956;20.130;2023-04-25T02:46:57;95890.59;;;9.98;78.81
75013;BME280;63567;49.956;20.130;2023-04-25T02:49:22;95897.66;;;10.04;77.89
75013;BME280;63567;49.956;20.130;2023-04-25T02:51:48;95891.56;;;10.04;77.41
75013;BME280;63567;49.956;20.130;2023-04-25T02:54:13;95892.16;;;10.06;77.40
75013;BME280;63567;49.956;20.130;2023-04-25T02:56:38;95888.56;;;10.00;77.64
75013;BME280;63567;49.956;20.130;2023-04-25T02:59:04;95898.66;;;10.03;77.73
75013;BME280;63567;49.956;20.130;2023-04-25T03:01:29;95893.03;;;10.00;77.68
75013;BME280;63567;49.956;20.130;2023-04-25T03:03:55;95888.97;;;9.97;78.25
75013;BME280;63567;49.956;20.130;2023-04-25T03:06:20;95886.94;;;9.99;77.88
75013;BME280;63567;49.956;20.130;2023-04-25T03:08:46;95893.50;;;9.90;78.38
75013;BME280;63567;49.956;20.130;2023-04-25T03:11:11;95883.41;;;9.87;77.93
75013;BME280;63567;49.956;20.130;2023-04-25T03:13:36;95890.84;;;9.90;77.77
75013;BME280;63567;49.956;20.130;2023-04-25T03:16:02;95894.28;;;9.91;77.79
75013;BME280;63567;49.956;20.130;2023-04-25T03:18:27;95883.00;;;9.83;77.97
75013;BME280;63567;49.956;20.130;2023-04-25T03:20:52;95894.13;;;9.85;78.24
75013;BME280;63567;49.956;20.130;2023-04-25T03:23:18;95891.69;;;9.84;78.44
75013;BME280;63567;49.956;20.130;2023-04-25T03:25:43;95890.25;;;9.88;77.80
75013;BME280;63567;49.956;20.130;2023-04-25T03:28:08;95897.56;;;9.86;77.92
75013;BME280;63567;49.956;20.130;2023-04-25T03:30:34;95900.38;;;9.84;77.87
75013;BME280;63567;49.956;20.130;2023-04-25T03:32:59;95905.28;;;9.81;78.29
75013;BME280;63567;49.956;20.130;2023-04-25T03:35:24;95907.91;;;9.81;78.10
75013;BME280;63567;49.956;20.130;2023-04-25T03:37:50;95907.13;;;9.80;78.17
75013;BME280;63567;49.956;20.130;2023-04-25T03:40:15;95899.63;;;9.77;77.66
75013;BME280;63567;49.956;20.130;2023-04-25T03:42:41;95900.44;;;9.78;78.65
75013;BME280;63567;49.956;20.130;2023-04-25T03:45:07;95916.16;;;9.84;77.91
75013;BME280;63567;49.956;20.130;2023-04-25T03:47:32;95904.53;;;9.74;78.13
75013;BME280;63567;49.956;20.130;2023-04-25T03:49:58;95905.50;;;9.79;77.62
75013;BME280;63567;49.956;20.130;2023-04-25T03:52:23;95905.28;;;9.81;77.51
75013;BME280;63567;49.956;20.130;2023-04-25T03:54:48;95901.84;;;9.80;77.70
75013;BME280;63567;49.956;20.130;2023-04-25T03:57:14;95909.34;;;9.77;77.99
75013;BME280;63567;49.956;20.130;2023-04-25T03:59:39;95910.94;;;9.78;78.48
75013;BME280;63567;49.956;20.130;2023-04-25T04:02:05;95923.72;;;9.74;79.78
75013;BME280;63567;49.956;20.130;2023-04-25T04:04:30;95920.31;;;9.67;80.41
75013;BME280;63567;49.956;20.130;2023-04-25T04:06:55;95923.13;;;9.72;79.18
75013;BME280;63567;49.956;20.130;2023-04-25T04:09:21;95931.69;;;9.61;81.19
75013;BME280;63567;49.956;20.130;2023-04-25T04:11:47;95934.69;;;9.64;80.57
75013;BME280;63567;49.956;20.130;2023-04-25T04:14:12;95941.16;;;9.69;79.81
75013;BME280;63567;49.956;20.130;2023-04-25T04:16:38;95939.75;;;9.66;80.08
75013;BME280;63567;49.956;20.130;2023-04-25T04:19:03;95941.59;;;9.59;81.02
75013;BME280;63567;49.956;20.130;2023-04-25T04:21:28;95937.34;;;9.58;80.98
75013;BME280;63567;49.956;20.130;2023-04-25T04:23:54;95951.91;;;9.60;80.34
75013;BME280;63567;49.956;20.130;2023-04-25T04:26:20;95945.44;;;9.56;79.94
75013;BME280;63567;49.956;20.130;2023-04-25T04:28:49;95965.91;;;9.54;80.78
75013;BME280;63567;49.956;20.130;2023-04-25T04:31:15;95954.38;;;9.49;80.50
75013;BME280;63567;49.956;20.130;2023-04-25T04:33:41;95959.06;;;9.40;81.53
75013;BME280;63567;49.956;20.130;2023-04-25T04:36:06;95958.66;;;9.36;81.27
75013;BME280;63567;49.956;20.130;2023-04-25T04:38:33;95956.84;;;9.43;80.75
75013;BME280;63567;49.956;20.130;2023-04-25T04:40:58;95971.44;;;9.33;80.95
75013;BME280;63567;49.956;20.130;2023-04-25T04:43:23;95955.84;;;9.31;80.05
75013;BME280;63567;49.956;20.130;2023-04-25T04:45:49;95962.13;;;9.37;79.91
75013;BME280;63567;49.956;20.130;2023-04-25T04:48:16;95971.19;;;9.34;80.71
75013;BME280;63567;49.956;20.130;2023-04-25T04:50:43;95967.16;;;9.32;79.73
75013;BME280;63567;49.956;20.130;2023-04-25T04:53:10;95976.09;;;9.31;80.26
75013;BME280;63567;49.956;20.130;2023-04-25T04:55:36;95984.94;;;9.36;80.05
75013;BME280;63567;49.956;20.130;2023-04-25T04:58:01;95975.47;;;9.35;79.89
75013;BME280;63567;49.956;20.130;2023-04-25T05:00:27;95974.88;;;9.27;79.73
75013;BME280;63567;49.956;20.130;2023-04-25T05:02:52;95982.34;;;9.30;79.21
75013;BME280;63567;49.956;20.130;2023-04-25T05:05:18;95980.13;;;9.27;79.07
75013;BME280;63567;49.956;20.130;2023-04-25T05:07:43;95980.31;;;9.25;79.90
75013;BME280;63567;49.956;20.130;2023-04-25T05:10:09;95985.75;;;9.30;79.72
75013;BME280;63567;49.956;20.130;2023-04-25T05:12:34;95977.53;;;9.20;80.15
75013;BME280;63567;49.956;20.130;2023-04-25T05:14:59;95981.56;;;9.22;79.58
75013;BME280;63567;49.956;20.130;2023-04-25T05:17:25;95991.44;;;9.27;79.80
75013;BME280;63567;49.956;20.130;2023-04-25T05:19:50;95985.59;;;9.18;80.00
75013;BME280;63567;49.956;20.130;2023-04-25T05:22:16;95992.03;;;9.29;79.65
75013;BME280;63567;49.956;20.130;2023-04-25T05:24:41;95989.84;;;9.26;79.53
75013;BME280;63567;49.956;20.130;2023-04-25T05:27:06;95991.63;;;9.25;79.22
75013;BME280;63567;49.956;20.130;2023-04-25T05:29:32;95988.84;;;9.20;79.57
75013;BME280;63567;49.956;20.130;2023-04-25T05:31:57;95992.47;;;9.19;80.35
75013;BME280;63567;49.956;20.130;2023-04-25T05:34:23;95995.69;;;9.21;80.37
75013;BME280;63567;49.956;20.130;2023-04-25T05:36:48;95990.25;;;9.16;79.64
75013;BME280;63567;49.956;20.130;2023-04-25T05:39:15;95981.34;;;9.11;80.63
75013;BME280;63567;49.956;20.130;2023-04-25T05:41:41;95998.91;;;9.23;79.63
75013;BME280;63567;49.956;20.130;2023-04-25T05:44:07;95991.47;;;9.07;80.54
75013;BME280;63567;49.956;20.130;2023-04-25T05:46:32;96000.97;;;9.01;81.17
75013;BME280;63567;49.956;20.130;2023-04-25T05:48:57;95994.31;;;9.05;80.25
75013;BME280;63567;49.956;20.130;2023-04-25T05:51:23;96000.16;;;9.08;80.51
75013;BME280;63567;49.956;20.130;2023-04-25T05:53:48;96013.50;;;9.13;79.74
75013;BME280;63567;49.956;20.130;2023-04-25T05:56:14;96002.19;;;9.05;80.09
75013;BME280;63567;49.956;20.130;2023-04-25T05:58:39;96004.63;;;9.07;79.47
75013;BME280;63567;49.956;20.130;2023-04-25T06:01:05;96004.81;;;9.12;79.00
75013;BME280;63567;49.956;20.130;2023-04-25T06:03:30;96003.00;;;8.99;79.67
75013;BME280;63567;49.956;20.130;2023-04-25T06:05:56;96006.84;;;9.03;79.48
75013;BME280;63567;49.956;20.130;2023-04-25T06:08:21;96013.72;;;9.04;79.13
75013;BME280;63567;49.956;20.130;2023-04-25T06:10:46;96020.19;;;9.09;78.68
75013;BME280;63567;49.956;20.130;2023-04-25T06:13:12;96018.16;;;8.97;79.22
75013;BME280;63567;49.956;20.130;2023-04-25T06:15:37;96026.88;;;8.98;79.09
75013;BME280;63567;49.956;20.130;2023-04-25T06:18:03;96024.81;;;8.93;78.55
75013;BME280;63567;49.956;20.130;2023-04-25T06:20:28;96038.56;;;9.02;78.29
75013;BME280;63567;49.956;20.130;2023-04-25T06:22:54;96033.91;;;8.91;78.26
75013;BME280;63567;49.956;20.130;2023-04-25T06:25:20;96039.38;;;8.96;78.41
75013;BME280;63567;49.956;20.130;2023-04-25T06:27:46;96031.50;;;8.89;78.69
75013;BME280;63567;49.956;20.130;2023-04-25T06:30:11;96037.56;;;8.90;78.43
75013;BME280;63567;49.956;20.130;2023-04-25T06:32:38;96033.13;;;8.83;77.93
75013;BME280;63567;49.956;20.130;2023-04-25T06:35:04;96044.63;;;8.82;78.17
75013;BME280;63567;49.956;20.130;2023-04-25T06:37:29;96038.19;;;8.78;77.88
75013;BME280;63567;49.956;20.130;2023-04-25T06:39:55;96045.03;;;8.79;78.23
75013;BME280;63567;49.956;20.130;2023-04-25T06:42:20;96046.06;;;8.78;78.25
75013;BME280;63567;49.956;20.130;2023-04-25T06:44:46;96046.06;;;8.78;77.97
75013;BME280;63567;49.956;20.130;2023-04-25T06:47:11;96041.00;;;8.77;77.53
75013;BME280;63567;49.956;20.130;2023-04-25T06:49:36;96040.38;;;8.68;77.51
75013;BME280;63567;49.956;20.130;2023-04-25T06:52:02;96044.84;;;8.68;78.02
75013;BME280;63567;49.956;20.130;2023-04-25T06:54:28;96045.63;;;8.61;78.32
75013;BME280;63567;49.956;20.130;2023-04-25T06:56:55;96053.91;;;8.72;78.04
75013;BME280;63567;49.956;20.130;2023-04-25T06:59:20;96046.63;;;8.67;78.22
75013;BME280;63567;49.956;20.130;2023-04-25T07:01:47;96049.66;;;8.77;77.97
75013;BME280;63567;49.956;20.130;2023-04-25T07:04:13;96038.19;;;8.78;78.24
75013;BME280;63567;49.956;20.130;2023-04-25T07:06:38;96036.34;;;8.79;78.37
75013;BME280;63567;49.956;20.130;2023-04-25T07:09:08;96044.22;;;8.86;78.44
75013;BME280;63567;49.956;20.130;2023-04-25T07:11:35;96051.50;;;8.90;78.46
75013;BME280;63567;49.956;20.130;2023-04-25T07:14:00;96050.28;;;8.93;78.36
75013;BME280;63567;49.956;20.130;2023-04-25T07:16:26;96038.97;;;8.92;78.55
75013;BME280;63567;49.956;20.130;2023-04-25T07:18:51;96046.66;;;8.94;79.15
75013;BME280;63567;49.956;20.130;2023-04-25T07:21:16;96048.47;;;9.00;78.99
75013;BME280;63567;49.956;20.130;2023-04-25T07:23:42;96046.66;;;9.07;78.56
75013;BME280;63567;49.956;20.130;2023-04-25T07:26:07;96048.25;;;9.08;78.92
75013;BME280;63567;49.956;20.130;2023-04-25T07:28:33;96046.03;;;9.05;78.61
75013;BME280;63567;49.956;20.130;2023-04-25T07:30:58;96049.47;;;9.12;77.97
75013;BME280;63567;49.956;20.130;2023-04-25T07:33:24;96059.19;;;9.12;78.12
75013;BME280;63567;49.956;20.130;2023-04-25T07:35:49;96053.50;;;9.15;77.99
75013;BME280;63567;49.956;20.130;2023-04-25T07:38:15;96047.88;;;9.11;77.53
75013;BME280;63567;49.956;20.130;2023-04-25T07:40:40;96052.69;;;9.14;77.11
75013;BME280;63567;49.956;20.130;2023-04-25T07:43:06;96050.25;;;9.19;77.12
75013;BME280;63567;49.956;20.130;2023-04-25T07:45:31;96054.94;;;9.17;76.52
75013;BME280;63567;49.956;20.130;2023-04-25T07:47:56;96064.84;;;9.22;76.53
75013;BME280;63567;49.956;20.130;2023-04-25T07:50:22;96069.25;;;9.21;76.45
75013;BME280;63567;49.956;20.130;2023-04-25T07:52:47;96061.00;;;9.11;76.17
75013;BME280;63567;49.956;20.130;2023-04-25T07:55:13;96052.09;;;8.99;76.90
75013;BME280;63567;49.956;20.130;2023-04-25T07:57:38;96059.19;;;9.05;77.02
75013;BME280;63567;49.956;20.130;2023-04-25T08:00:04;96054.34;;;9.15;77.13
75013;BME280;63567;49.956;20.130;2023-04-25T08:02:30;96046.22;;;9.17;77.64
75013;BME280;63567;49.956;20.130;2023-04-25T08:04:56;96045.44;;;9.16;78.38
75013;BME280;63567;49.956;20.130;2023-04-25T08:07:21;96041.38;;;9.20;78.60
75013;BME280;63567;49.956;20.130;2023-04-25T08:09:46;96039.34;;;9.22;78.69
75013;BME280;63567;49.956;20.130;2023-04-25T08:12:12;96050.88;;;9.35;79.07
75013;BME280;63567;49.956;20.130;2023-04-25T08:14:37;96049.03;;;9.35;78.74
75013;BME280;63567;49.956;20.130;2023-04-25T08:17:05;96057.09;;;9.47;78.14
75013;BME280;63567;49.956;20.130;2023-04-25T08:19:30;96054.47;;;9.47;77.52
75013;BME280;63567;49.956;20.130;2023-04-25T08:21:56;96045.59;;;9.41;77.29
75013;BME280;63567;49.956;20.130;2023-04-25T08:24:21;96052.84;;;9.53;76.65
75013;BME280;63567;49.956;20.130;2023-04-25T08:26:47;96060.94;;;9.58;76.62
75013;BME280;63567;49.956;20.130;2023-04-25T08:29:13;96055.50;;;9.53;75.89
75013;BME280;63567;49.956;20.130;2023-04-25T08:31:38;96060.09;;;9.64;76.05
75013;BME280;63567;49.956;20.130;2023-04-25T08:34:04;96057.06;;;9.60;75.69
75013;BME280;63567;49.956;20.130;2023-04-25T08:36:29;96056.72;;;9.50;75.30
75013;BME280;63567;49.956;20.130;2023-04-25T08:38:55;96062.16;;;9.49;73.90
75013;BME280;63567;49.956;20.130;2023-04-25T08:41:21;96059.53;;;9.49;73.37
75013;BME280;63567;49.956;20.130;2023-04-25T08:43:48;96061.16;;;9.36;73.45
75013;BME280;63567;49.956;20.130;2023-04-25T08:46:19;96058.75;;;9.41;74.02
75013;BME280;63567;49.956;20.130;2023-04-25T08:48:46;96074.50;;;9.48;73.54
75013;BME280;63567;49.956;20.130;2023-04-25T08:51:21;96081.00;;;9.45;73.19
75013;BME280;63567;49.956;20.130;2023-04-25T08:53:51;96056.53;;;9.32;73.02
75013;BME280;63567;49.956;20.130;2023-04-25T08:56:16;96067.47;;;9.29;72.93
75013;BME280;63567;49.956;20.130;2023-04-25T08:58:50;96087.88;;;9.27;73.26
75013;BME280;63567;49.956;20.130;2023-04-25T09:01:17;96088.25;;;9.23;73.32
75013;BME280;63567;49.956;20.130;2023-04-25T09:03:44;96093.75;;;9.29;73.69
75013;BME280;63567;49.956;20.130;2023-04-25T09:06:11;96077.16;;;9.21;73.73
75013;BME280;63567;49.956;20.130;2023-04-25T09:08:37;96091.50;;;9.32;73.38
75013;BME280;63567;49.956;20.130;2023-04-25T09:11:02;96084.22;;;9.28;73.93
75013;BME280;63567;49.956;20.130;2023-04-25T09:13:28;96083.84;;;9.24;73.88
75013;BME280;63567;49.956;20.130;2023-04-25T09:15:56;96082.22;;;9.23;74.32
75013;BME280;63567;49.956;20.130;2023-04-25T09:18:29;96096.38;;;9.29;74.13
75013;BME280;63567;49.956;20.130;2023-04-25T09:20:58;96091.31;;;9.27;74.43
75013;BME280;63567;49.956;20.130;2023-04-25T09:23:29;96091.50;;;9.25;74.67
75013;BME280;63567;49.956;20.130;2023-04-25T09:25:55;96093.50;;;9.30;74.80
75013;BME280;63567;49.956;20.130;2023-04-25T09:28:24;96092.72;;;9.30;73.89
75013;BME280;63567;49.956;20.130;2023-04-25T09:30:55;96098.56;;;9.32;73.85
75013;BME280;63567;49.956;20.130;2023-04-25T09:33:28;96091.72;;;9.24;74.01
75013;BME280;63567;49.956;20.130;2023-04-25T09:36:01;96094.97;;;9.26;74.41
75013;BME280;63567;49.956;20.130;2023-04-25T09:38:30;96093.94;;;9.27;74.23
75013;BME280;63567;49.956;20.130;2023-04-25T09:40:55;96094.75;;;9.21;74.58
75013;BME280;63567;49.956;20.130;2023-04-25T09:43:23;96096.38;;;9.29;74.52
75013;BME280;63567;49.956;20.130;2023-04-25T09:45:49;96094.13;;;9.32;75.16
75013;BME280;63567;49.956;20.130;2023-04-25T09:48:17;96095.53;;;9.28;74.95
75013;BME280;63567;49.956;20.130;2023-04-25T09:50:44;96103.44;;;9.35;75.47
75013;BME280;63567;49.956;20.130;2023-04-25T09:53:09;96088.06;;;9.32;75.19
75013;BME280;63567;49.956;20.130;2023-04-25T09:55:35;96090.69;;;9.32;75.28
75013;BME280;63567;49.956;20.130;2023-04-25T09:58:04;96079.38;;;9.38;75.20
75013;BME280;63567;49.956;20.130;2023-04-25T10:00:33;96085.22;;;9.46;74.77
75013;BME280;63567;49.956;20.130;2023-04-25T10:03:02;96076.72;;;9.44;75.02
75013;BME280;63567;49.956;20.130;2023-04-25T10:05:30;96073.09;;;9.45;75.33
75013;BME280;63567;49.956;20.130;2023-04-25T10:07:58;96079.53;;;9.50;75.17
75013;BME280;63567;49.956;20.130;2023-04-25T10:10:24;96091.50;;;9.45;74.41
75013;BME280;63567;49.956;20.130;2023-04-25T10:12:52;96089.25;;;9.49;73.88
75013;BME280;63567;49.956;20.130;2023-04-25T10:15:19;96089.25;;;9.49;74.14
75013;BME280;63567;49.956;20.130;2023-04-25T10:17:45;96073.47;;;9.49;74.38
75013;BME280;63567;49.956;20.130;2023-04-25T10:20:10;96084.59;;;9.51;74.78
75013;BME280;63567;49.956;20.130;2023-04-25T10:22:42;96088.44;;;9.55;75.13
75013;BME280;63567;49.956;20.130;2023-04-25T10:25:09;96073.69;;;9.48;75.19
75013;BME280;63567;49.956;20.130;2023-04-25T10:27:36;96082.16;;;9.56;74.87
75013;BME280;63567;49.956;20.130;2023-04-25T10:30:14;96083.78;;;9.57;75.14
75013;BME280;63567;49.956;20.130;2023-04-25T10:32:41;96088.63;;;9.60;74.91
75013;BME280;63567;49.956;20.130;2023-04-25T10:35:18;96069.41;;;9.60;75.09
75013;BME280;63567;49.956;20.130;2023-04-25T10:38:08;96081.91;;;9.71;75.37
75013;BME280;63567;49.956;20.130;2023-04-25T10:40:34;96083.13;;;9.75;75.71
75013;BME280;63567;49.956;20.130;2023-04-25T10:43:40;96084.50;;;9.84;75.39
75013;BME280;63567;49.956;20.130;2023-04-25T10:46:13;96081.28;;;9.89;75.45
75013;BME280;63567;49.956;20.130;2023-04-25T10:48:43;96079.88;;;9.93;75.04
75013;BME280;63567;49.956;20.130;2023-04-25T10:51:33;96081.69;;;9.86;75.24
75013;BME280;63567;49.956;20.130;2023-04-25T10:54:07;96080.09;;;9.85;74.99
75013;BME280;63567;49.956;20.130;2023-04-25T10:56:33;96077.81;;;9.95;75.13
75013;BME280;63567;49.956;20.130;2023-04-25T10:59:14;96077.22;;;10.00;75.26
75013;BME280;63567;49.956;20.130;2023-04-25T11:01:42;96064.41;;;10.03;74.70
75013;BME280;63567;49.956;20.130;2023-04-25T11:04:33;96079.56;;;10.15;73.67
75013;BME280;63567;49.956;20.130;2023-04-25T11:09:27;96067.56;;;10.25;72.91
75013;BME280;63567;49.956;20.130;2023-04-25T11:11:57;96059.47;;;10.27;72.52
75013;BME280;63567;49.956;20.130;2023-04-25T11:14:23;96060.66;;;10.38;72.83
75013;BME280;63567;49.956;20.130;2023-04-25T11:16:56;96074.53;;;10.52;71.89
75013;BME280;63567;49.956;20.130;2023-04-25T11:19:23;96066.06;;;10.50;71.40
75013;BME280;63567;49.956;20.130;2023-04-25T11:21:48;96048.47;;;10.43;70.19
75013;BME280;63567;49.956;20.130;2023-04-25T11:24:16;96058.53;;;10.53;70.00
75013;BME280;63567;49.956;20.130;2023-04-25T11:26:42;96065.16;;;10.62;70.32
75013;BME280;63567;49.956;20.130;2023-04-25T11:29:07;96055.81;;;10.66;70.53
75013;BME280;63567;49.956;20.130;2023-04-25T11:31:33;96068.53;;;10.76;70.62
75013;BME280;63567;49.956;20.130;2023-04-25T11:33:59;96073.31;;;10.86;70.41
75013;BME280;63567;49.956;20.130;2023-04-25T11:36:25;96073.69;;;10.89;70.22
75013;BME280;63567;49.956;20.130;2023-04-25T11:38:51;96062.56;;;10.87;69.94
75013;BME280;63567;49.956;20.130;2023-04-25T11:41:17;96063.09;;;10.96;70.26
75013;BME280;63567;49.956;20.130;2023-04-25T11:43:46;96048.09;;;10.97;70.84
75013;BME280;63567;49.956;20.130;2023-04-25T11:46:14;96056.53;;;11.05;70.55
75013;BME280;63567;49.956;20.130;2023-04-25T11:48:40;96061.56;;;11.14;70.58
75013;BME280;63567;49.956;20.130;2023-04-25T11:51:06;96055.28;;;11.15;70.34
75013;BME280;63567;49.956;20.130;2023-04-25T11:53:32;96063.28;;;11.26;70.42
75013;BME280;63567;49.956;20.130;2023-04-25T11:55:57;96050.34;;;11.18;70.29
75013;BME280;63567;49.956;20.130;2023-04-25T11:58:23;96059.00;;;11.25;70.00
75013;BME280;63567;49.956;20.130;2023-04-25T12:00:48;96059.06;;;11.19;69.89
75013;BME280;63567;49.956;20.130;2023-04-25T12:03:14;96060.09;;;11.18;69.38
75013;BME280;63567;49.956;20.130;2023-04-25T12:05:39;96066.97;;;11.19;68.87
75013;BME280;63567;49.956;20.130;2023-04-25T12:08:15;96069.41;;;11.20;68.89
75013;BME280;63567;49.956;20.130;2023-04-25T12:10:43;96056.94;;;11.09;69.59
75013;BME280;63567;49.956;20.130;2023-04-25T12:13:23;96075.53;;;11.14;69.78
75013;BME280;63567;49.956;20.130;2023-04-25T12:15:49;96064.44;;;11.05;69.91
75013;BME280;63567;49.956;20.130;2023-04-25T12:18:15;96065.09;;;11.01;69.86
75013;BME280;63567;49.956;20.130;2023-04-25T12:20:41;96063.91;;;10.97;69.09
75013;BME280;63567;49.956;20.130;2023-04-25T12:23:06;96063.25;;;11.01;69.46
75013;BME280;63567;49.956;20.130;2023-04-25T12:25:41;96069.56;;;11.00;69.72
75013;BME280;63567;49.956;20.130;2023-04-25T12:28:20;96074.25;;;10.98;69.15
75013;BME280;63567;49.956;20.130;2023-04-25T12:30:59;96079.56;;;10.92;68.49
75013;BME280;63567;49.956;20.130;2023-04-25T12:33:27;96071.16;;;10.76;67.88
75013;BME280;63567;49.956;20.130;2023-04-25T12:35:56;96077.22;;;10.77;68.28
75013;BME280;63567;49.956;20.130;2023-04-25T12:40:54;96068.81;;;10.61;66.82
75013;BME280;63567;49.956;20.130;2023-04-25T12:43:20;96061.22;;;10.46;67.91
75013;BME280;63567;49.956;20.130;2023-04-25T12:45:50;96074.53;;;10.52;67.72
75013;BME280;63567;49.956;20.130;2023-04-25T12:48:19;96068.31;;;10.46;68.46
75013;BME280;63567;49.956;20.130;2023-04-25T12:50:46;96074.97;;;10.48;69.05
75013;BME280;63567;49.956;20.130;2023-04-25T12:53:14;96066.75;;;10.32;68.61
75013;BME280;63567;49.956;20.130;2023-04-25T12:55:40;96076.06;;;10.27;68.70
75013;BME280;63567;49.956;20.130;2023-04-25T12:58:05;96075.69;;;10.24;68.37